createdAt,value
2023-04-19T00:01:44.236Z,102153.78
2023-04-19T00:04:12.762Z,102151.06
2023-04-19T00:06:42.471Z,102162.81
2023-04-19T00:09:10.117Z,102160.06
2023-04-19T00:11:38.223Z,102167.03
2023-04-19T00:14:05.950Z,102163.00
2023-04-19T00:16:34.103Z,102161.34
2023-04-19T00:19:02.173Z,102145.66
2023-04-19T00:21:30.101Z,102155.25
2023-04-19T00:23:59.396Z,102146.03
2023-04-19T00:26:27.079Z,102153.78
2023-04-19T00:28:55.167Z,102147.50
2023-04-19T00:31:22.953Z,102148.38
2023-04-19T00:33:51.207Z,102151.72
2023-04-19T00:36:18.915Z,102151.91
2023-04-19T00:38:47.720Z,102159.03
2023-04-19T00:41:17.210Z,102153.38
2023-04-19T00:43:45.196Z,102158.84
2023-04-19T00:46:12.944Z,102156.13
2023-04-19T00:48:41.130Z,102155.50
2023-04-19T00:51:10.601Z,102160.53
2023-04-19T00:53:39.278Z,102154.47
2023-04-19T00:56:08.077Z,102157.63
2023-04-19T00:58:39.088Z,102155.94
2023-04-19T01:01:07.719Z,102148.63
2023-04-19T01:03:36.452Z,102151.56
2023-04-19T01:06:04.995Z,102156.59
2023-04-19T01:08:32.702Z,102159.53
2023-04-19T01:11:00.319Z,102157.44
2023-04-19T01:13:28.791Z,102153.25
2023-04-19T01:15:58.945Z,102151.59
2023-04-19T01:18:29.804Z,102153.91
2023-04-19T01:20:57.444Z,102156.00
2023-04-19T01:23:26.505Z,102156.44
2023-04-19T01:25:54.659Z,102151.22
2023-04-19T01:28:22.278Z,102148.88
2023-04-19T01:30:51.409Z,102144.72
2023-04-19T01:33:19.040Z,102141.75
2023-04-19T01:35:46.985Z,102144.28
2023-04-19T01:38:14.625Z,102146.38
2023-04-19T01:40:44.445Z,102145.75
2023-04-19T01:43:14.573Z,102144.94
2023-04-19T01:45:42.218Z,102136.13
2023-04-19T01:48:10.165Z,102141.56
2023-04-19T01:50:37.923Z,102134.22
2023-04-19T01:53:05.984Z,102134.03
2023-04-19T01:55:33.638Z,102136.13
2023-04-19T01:58:03.259Z,102124.59
2023-04-19T02:00:31.027Z,102128.78
2023-04-19T02:02:59.214Z,102129.84
2023-04-19T02:05:27.222Z,102131.28
2023-04-19T02:07:55.222Z,102125.63
2023-04-19T02:10:23.041Z,102119.56
2023-04-19T02:12:50.754Z,102123.75
2023-04-19T02:15:20.895Z,102118.31
2023-04-19T02:17:48.567Z,102111.19
2023-04-19T02:20:16.304Z,102111.63
2023-04-19T02:22:44.599Z,102118.50
2023-04-19T02:25:12.208Z,102113.69
2023-04-19T02:27:40.328Z,102101.78
2023-04-19T02:30:09.532Z,102107.63
2023-04-19T02:32:38.942Z,102100.75
2023-04-19T02:35:07.314Z,102102.81
2023-04-19T02:37:36.121Z,102108.25
2023-04-19T02:40:05.302Z,102100.94
2023-04-19T02:42:32.959Z,102095.50
2023-04-19T02:45:00.616Z,102098.00
2023-04-19T02:47:28.725Z,102086.91
2023-04-19T02:49:57.771Z,102093.41
2023-04-19T02:52:28.129Z,102087.56
2023-04-19T02:54:55.769Z,102077.31
2023-04-19T02:57:23.405Z,102080.03
2023-04-19T02:59:51.170Z,102076.06
2023-04-19T03:02:19.320Z,102075.84
2023-04-19T03:04:47.239Z,102082.50
2023-04-19T03:07:16.698Z,102078.53
2023-04-19T03:09:44.354Z,102074.78
2023-04-19T03:12:12.423Z,102068.53
2023-04-19T03:14:40.129Z,102067.47
2023-04-19T03:17:08.962Z,102065.19
2023-04-19T03:19:36.610Z,102065.56
2023-04-19T03:22:04.269Z,102056.59
2023-04-19T03:24:35.560Z,102057.22
2023-04-19T03:27:05.359Z,102050.53
2023-04-19T03:29:33.368Z,102045.06
2023-04-19T03:32:01.789Z,102037.34
2023-04-19T03:34:30.462Z,102043.22
2023-04-19T03:36:58.633Z,102032.72
2023-04-19T03:39:26.264Z,102034.00
2023-04-19T03:41:55.885Z,102032.94
2023-04-19T03:44:23.548Z,102033.34
2023-04-19T03:46:51.207Z,102034.63
2023-04-19T03:49:19.246Z,102031.91
2023-04-19T03:51:46.984Z,102034.41
2023-04-19T03:54:15.215Z,102019.75
2023-04-19T03:56:42.970Z,102021.22
2023-04-19T03:59:12.043Z,102020.59
2023-04-19T04:01:42.687Z,102020.81
2023-04-19T04:04:11.877Z,102008.28
2023-04-19T04:06:39.779Z,102017.25
2023-04-19T04:09:07.840Z,102015.59
2023-04-19T04:11:35.542Z,102014.31
2023-04-19T04:14:03.678Z,102009.94
2023-04-19T04:16:32.711Z,102002.41
2023-04-19T04:19:00.450Z,101991.94
2023-04-19T04:21:28.631Z,102002.59
2023-04-19T04:23:56.223Z,101995.91
2023-04-19T04:26:25.676Z,102003.00
2023-04-19T04:28:53.729Z,101995.91
2023-04-19T04:31:21.791Z,101991.53
2023-04-19T04:33:50.966Z,101996.53
2023-04-19T04:36:19.736Z,101994.44
2023-04-19T04:38:47.410Z,101992.16
2023-04-19T04:41:16.931Z,101983.56
2023-04-19T04:43:45.552Z,101978.16
2023-04-19T04:46:13.569Z,101972.91
2023-04-19T04:48:41.206Z,101974.81
2023-04-19T04:51:11.124Z,101975.00
2023-04-19T04:53:38.771Z,101974.41
2023-04-19T04:56:07.015Z,101973.34
2023-04-19T04:58:34.985Z,101970.38
2023-04-19T05:01:02.703Z,101971.69
2023-04-19T05:03:31.291Z,101960.56
2023-04-19T05:05:58.922Z,101962.47
2023-04-19T05:08:28.307Z,101963.28
2023-04-19T05:10:56.530Z,101954.50
2023-04-19T05:13:24.227Z,101949.94
2023-04-19T05:15:52.889Z,101947.63
2023-04-19T05:18:20.581Z,101948.25
2023-04-19T05:20:48.779Z,101949.09
2023-04-19T05:23:16.864Z,101946.78
2023-04-19T05:25:46.983Z,101947.41
2023-04-19T05:28:14.683Z,101944.09
2023-04-19T05:30:42.335Z,101940.09
2023-04-19T05:33:10.288Z,101938.41
2023-04-19T05:35:37.980Z,101940.28
2023-04-19T05:38:06.260Z,101933.81
2023-04-19T05:40:35.460Z,101939.25
2023-04-19T05:43:04.556Z,101935.28
2023-04-19T05:45:32.179Z,101927.75
2023-04-19T05:48:00.067Z,101939.66
2023-04-19T05:50:27.706Z,101935.66
2023-04-19T05:52:55.802Z,101937.97
2023-04-19T05:55:23.680Z,101938.81
2023-04-19T05:57:51.771Z,101941.09
2023-04-19T06:00:21.164Z,101930.03
2023-04-19T06:02:49.393Z,101935.66
2023-04-19T06:05:17.317Z,101935.00
2023-04-19T06:07:54.476Z,101937.31
2023-04-19T06:10:33.761Z,101933.13
2023-04-19T06:13:09.074Z,101932.44
2023-04-19T06:15:39.957Z,101923.03
2023-04-19T06:18:10.772Z,101935.41
2023-04-19T06:20:46.896Z,101927.63
2023-04-19T06:23:15.643Z,101928.66
2023-04-19T06:25:43.347Z,101922.94
2023-04-19T06:28:11.364Z,101931.50
2023-04-19T06:30:40.369Z,101930.28
2023-04-19T06:33:08.517Z,101923.50
2023-04-19T06:35:36.165Z,101931.44
2023-04-19T06:38:04.122Z,101928.72
2023-04-19T06:40:32.171Z,101926.59
2023-04-19T06:42:59.870Z,101922.63
2023-04-19T06:45:28.189Z,101927.38
2023-04-19T06:47:57.244Z,101921.72
2023-04-19T06:50:25.886Z,101911.22
2023-04-19T06:52:54.242Z,101912.66
2023-04-19T06:55:22.301Z,101906.56
2023-04-19T06:57:50.358Z,101902.28
2023-04-19T07:00:19.074Z,101900.72
2023-04-19T07:02:46.813Z,101898.16
2023-04-19T07:05:16.611Z,101903.63
2023-04-19T07:07:44.291Z,101900.00
2023-04-19T07:10:13.031Z,101901.84
2023-04-19T07:12:40.917Z,101899.03
2023-04-19T07:15:10.250Z,101899.53
2023-04-19T07:17:38.034Z,101908.06
2023-04-19T07:20:07.636Z,101895.84
2023-04-19T07:22:36.893Z,101898.44
2023-04-19T07:25:05.274Z,101904.19
2023-04-19T07:27:33.071Z,101902.00
2023-04-19T07:30:01.159Z,101902.00
2023-04-19T07:32:28.842Z,101887.09
2023-04-19T07:34:56.907Z,101896.41
2023-04-19T07:37:25.725Z,101893.88
2023-04-19T07:39:54.991Z,101894.09
2023-04-19T07:42:22.670Z,101891.72
2023-04-19T07:44:50.675Z,101877.28
2023-04-19T07:47:18.362Z,101880.03
2023-04-19T07:49:46.415Z,101897.22
2023-04-19T07:52:14.073Z,101899.38
2023-04-19T07:54:43.209Z,101885.72
2023-04-19T07:57:12.174Z,101882.28
2023-04-19T07:59:40.289Z,101880.03
2023-04-19T08:02:08.117Z,101883.47
2023-04-19T08:04:37.413Z,101868.50
2023-04-19T08:07:05.757Z,101873.19
2023-04-19T08:09:34.820Z,101890.75
2023-04-19T08:12:02.496Z,101890.66
2023-04-19T08:14:40.518Z,101886.03
2023-04-19T08:17:25.372Z,101874.00
2023-04-19T08:19:55.084Z,101872.69
2023-04-19T08:22:22.713Z,101881.22
2023-04-19T08:24:52.184Z,101871.94
2023-04-19T08:27:20.270Z,101871.44
2023-04-19T08:29:49.737Z,101859.88
2023-04-19T08:32:17.449Z,101867.59
2023-04-19T08:34:46.547Z,101858.75
2023-04-19T08:37:14.174Z,101857.03
2023-04-19T08:39:42.992Z,101864.00
2023-04-19T08:42:24.625Z,101862.88
2023-04-19T08:45:26.177Z,101854.66
2023-04-19T08:48:00.008Z,101859.06
2023-04-19T08:53:12.243Z,101838.47
2023-04-19T08:56:08.480Z,101843.09
2023-04-19T08:58:52.642Z,101838.91
2023-04-19T09:01:35.338Z,101833.34
2023-04-19T09:04:16.847Z,101837.41
2023-04-19T09:06:49.523Z,101834.47
2023-04-19T09:11:50.185Z,101833.72
2023-04-19T09:14:21.085Z,101815.28
2023-04-19T09:16:52.393Z,101820.31
2023-04-19T09:19:24.634Z,101828.31
2023-04-19T09:21:54.790Z,101813.09
2023-04-19T09:27:12.590Z,101792.88
2023-04-19T09:29:41.430Z,101801.00
2023-04-19T09:32:10.490Z,101803.16
2023-04-19T09:34:52.489Z,101798.00
2023-04-19T09:37:33.081Z,101794.16
2023-04-19T09:40:23.962Z,101802.16
2023-04-19T09:48:04.463Z,101782.09
2023-04-19T09:50:33.809Z,101773.06
2023-04-19T09:53:08.017Z,101783.38
2023-04-19T09:55:48.565Z,101773.84
2023-04-19T09:58:27.609Z,101773.16
2023-04-19T10:01:10.686Z,101780.88
2023-04-19T10:03:44.193Z,101775.38
2023-04-19T10:06:26.971Z,101774.28
2023-04-19T10:09:02.816Z,101775.44
2023-04-19T10:11:34.132Z,101768.59
2023-04-19T10:14:04.782Z,101773.81
2023-04-19T10:16:34.259Z,101776.38
2023-04-19T10:19:05.243Z,101765.66
2023-04-19T10:21:34.060Z,101758.22
2023-04-19T10:24:02.791Z,101769.81
2023-04-19T10:26:30.582Z,101764.59
2023-04-19T10:28:58.678Z,101770.94
2023-04-19T10:31:27.555Z,101746.94
2023-04-19T10:33:57.901Z,101751.06
2023-04-19T10:36:28.443Z,101745.00
2023-04-19T10:38:56.730Z,101767.59
2023-04-19T10:41:24.510Z,101756.88
2023-04-19T10:44:10.428Z,101757.97
2023-04-19T10:46:40.993Z,101756.00
2023-04-19T10:49:10.176Z,101745.78
2023-04-19T10:51:42.654Z,101745.25
2023-04-19T10:54:11.592Z,101740.56
2023-04-19T10:57:02.823Z,101734.78
2023-04-19T10:59:32.188Z,101739.44
2023-04-19T11:02:01.277Z,101736.97
2023-04-19T11:05:00.481Z,101720.19
2023-04-19T11:07:29.650Z,101731.19
2023-04-19T11:09:57.291Z,101730.66
2023-04-19T11:12:25.350Z,101722.69
2023-04-19T11:14:54.361Z,101721.81
2023-04-19T11:17:26.235Z,101707.47
2023-04-19T11:19:58.221Z,101708.59
2023-04-19T11:22:28.137Z,101716.06
2023-04-19T11:24:57.421Z,101713.25
2023-04-19T11:27:25.704Z,101709.13
2023-04-19T11:29:53.719Z,101700.88
2023-04-19T11:32:22.624Z,101704.94
2023-04-19T11:34:50.306Z,101695.28
2023-04-19T11:37:18.305Z,101699.97
2023-04-19T11:39:47.394Z,101691.66
2023-04-19T11:42:20.641Z,101704.00
2023-04-19T11:44:52.644Z,101704.56
2023-04-19T11:47:21.232Z,101693.66
2023-04-19T11:49:48.888Z,101688.06
2023-04-19T11:52:23.305Z,101687.94
2023-04-19T11:54:52.216Z,101678.78
2023-04-19T11:57:31.082Z,101675.50
2023-04-19T12:00:10.896Z,101685.59
2023-04-19T12:02:40.469Z,101681.19
2023-04-19T12:05:10.152Z,101685.88
2023-04-19T12:07:38.096Z,101677.94
2023-04-19T12:10:13.330Z,101679.25
2023-04-19T12:12:42.340Z,101674.59
2023-04-19T12:15:10.770Z,101673.22
2023-04-19T12:18:00.339Z,101676.03
2023-04-19T12:20:35.618Z,101670.00
2023-04-19T12:23:04.198Z,101660.91
2023-04-19T12:25:33.249Z,101659.81
2023-04-19T12:28:04.614Z,101663.41
2023-04-19T12:30:33.000Z,101654.31
2023-04-19T12:33:01.056Z,101653.75
2023-04-19T12:35:29.467Z,101646.59
2023-04-19T12:37:58.503Z,101644.13
2023-04-19T12:40:27.174Z,101643.03
2023-04-19T12:42:55.564Z,101628.44
2023-04-19T12:45:24.748Z,101631.94
2023-04-19T12:47:52.527Z,101619.00
2023-04-19T12:50:20.778Z,101620.91
2023-04-19T12:52:48.797Z,101613.31
2023-04-19T12:55:16.848Z,101617.47
2023-04-19T12:57:44.556Z,101630.94
2023-04-19T13:00:14.726Z,101620.94
2023-04-19T13:02:44.028Z,101615.44
2023-04-19T13:05:12.830Z,101605.63
2023-04-19T13:07:41.311Z,101599.56
2023-04-19T13:10:10.223Z,101593.78
2023-04-19T13:12:38.035Z,101582.28
2023-04-19T13:15:07.081Z,101579.28
2023-04-19T13:17:34.836Z,101584.19
2023-04-19T13:20:05.658Z,101580.06
2023-04-19T13:22:33.594Z,101578.66
2023-04-19T13:25:01.622Z,101582.38
2023-04-19T13:27:29.742Z,101577.69
2023-04-19T13:29:57.443Z,101587.56
2023-04-19T13:32:25.172Z,101578.75
2023-04-19T13:34:53.804Z,101576.75
2023-04-19T13:37:22.922Z,101579.22
2023-04-19T13:39:51.676Z,101581.13
2023-04-19T13:42:19.429Z,101581.56
2023-04-19T13:44:49.387Z,101579.63
2023-04-19T13:47:18.148Z,101581.78
2023-04-19T13:49:45.810Z,101571.00
2023-04-19T13:52:13.849Z,101567.16
2023-04-19T13:54:42.944Z,101561.94
2023-04-19T13:57:11.338Z,101577.59
2023-04-19T13:59:39.179Z,101573.97
2023-04-19T14:02:07.116Z,101555.47
2023-04-19T14:04:35.486Z,101547.19
2023-04-19T14:07:03.731Z,101557.47
2023-04-19T14:09:31.543Z,101552.31
2023-04-19T14:12:01.217Z,101557.25
2023-04-19T14:14:30.283Z,101536.88
2023-04-19T14:17:00.131Z,101534.34
2023-04-19T14:19:27.844Z,101529.47
2023-04-19T14:21:57.699Z,101519.13
2023-04-19T14:24:25.857Z,101512.81
2023-04-19T14:27:07.184Z,101517.47
2023-04-19T14:29:39.913Z,101508.47
2023-04-19T14:32:24.526Z,101513.72
2023-04-19T14:34:54.475Z,101514.03
2023-04-19T14:37:23.346Z,101502.16
2023-04-19T14:39:51.408Z,101509.59
2023-04-19T14:42:22.107Z,101505.97
2023-04-19T14:44:53.513Z,101507.56
2023-04-19T14:47:21.625Z,101508.97
2023-04-19T14:49:49.903Z,101501.44
2023-04-19T14:52:17.823Z,101506.63
2023-04-19T14:54:45.977Z,101513.94
2023-04-19T14:57:14.310Z,101500.47
2023-04-19T14:59:42.555Z,101500.22
2023-04-19T15:02:13.255Z,101495.38
2023-04-19T15:04:41.861Z,101503.50
2023-04-19T15:07:13.331Z,101495.13
2023-04-19T15:09:41.285Z,101495.22
2023-04-19T15:12:09.250Z,101508.09
2023-04-19T15:14:37.161Z,101509.03
2023-04-19T15:17:04.815Z,101517.34
2023-04-19T15:19:34.271Z,101519.78
2023-04-19T15:22:03.834Z,101516.81
2023-04-19T15:24:32.961Z,101521.00
2023-04-19T15:27:01.970Z,101515.66
2023-04-19T15:29:30.033Z,101526.38
2023-04-19T15:31:57.883Z,101511.09
2023-04-19T15:34:25.934Z,101516.09
2023-04-19T15:36:55.706Z,101516.16
2023-04-19T15:39:23.376Z,101504.94
2023-04-19T15:41:52.116Z,101499.84
2023-04-19T15:44:19.873Z,101498.19
2023-04-19T15:46:48.062Z,101492.97
2023-04-19T15:49:16.058Z,101494.28
2023-04-19T15:51:43.975Z,101498.78
2023-04-19T15:54:15.321Z,101480.13
2023-04-19T15:56:42.952Z,101494.75
2023-04-19T15:59:10.601Z,101490.13
2023-04-19T16:01:39.429Z,101487.44
2023-04-19T16:04:07.538Z,101488.59
2023-04-19T16:06:35.602Z,101482.31
2023-04-19T16:09:03.725Z,101479.28
2023-04-19T16:11:33.175Z,101467.13
2023-04-19T16:14:01.122Z,101454.56
2023-04-19T16:16:33.270Z,101448.19
2023-04-19T16:19:01.520Z,101451.13
2023-04-19T16:21:30.263Z,101439.63
2023-04-19T16:23:58.392Z,101440.56
2023-04-19T16:26:26.433Z,101436.41
2023-04-19T16:28:55.474Z,101442.47
2023-04-19T16:31:23.352Z,101442.34
2023-04-19T16:33:51.315Z,101435.81
2023-04-19T16:36:19.280Z,101438.06
2023-04-19T16:38:47.298Z,101431.91
2023-04-19T16:41:14.938Z,101431.06
2023-04-19T16:43:43.703Z,101427.03
2023-04-19T16:46:12.703Z,101425.97
2023-04-19T16:48:40.369Z,101432.72
2023-04-19T16:51:08.481Z,101422.28
2023-04-19T16:53:36.165Z,101423.63
2023-04-19T16:56:04.337Z,101422.19
2023-04-19T16:58:32.392Z,101419.22
2023-04-19T17:01:01.757Z,101422.06
2023-04-19T17:03:31.409Z,101414.69
2023-04-19T17:06:00.205Z,101414.59
2023-04-19T17:08:28.149Z,101413.16
2023-04-19T17:10:56.362Z,101416.38
2023-04-19T17:13:24.346Z,101421.13
2023-04-19T17:15:52.125Z,101405.72
2023-04-19T17:18:19.777Z,101417.94
2023-04-19T17:20:49.363Z,101406.44
2023-04-19T17:23:16.986Z,101415.22
2023-04-19T17:25:44.657Z,101416.97
2023-04-19T17:28:13.508Z,101412.00
2023-04-19T17:30:41.152Z,101410.13
2023-04-19T17:33:08.831Z,101409.75
2023-04-19T17:35:36.903Z,101411.53
2023-04-19T17:38:05.968Z,101420.44
2023-04-19T17:40:33.633Z,101425.91
2023-04-19T17:43:02.586Z,101415.22
2023-04-19T17:45:30.307Z,101419.72
2023-04-19T17:47:58.036Z,101413.44
2023-04-19T17:50:26.819Z,101412.38
2023-04-19T17:52:55.345Z,101419.38
2023-04-19T17:55:25.362Z,101418.91
2023-04-19T17:57:53.381Z,101417.34
2023-04-19T18:00:21.536Z,101416.28
2023-04-19T18:02:49.689Z,101415.91
2023-04-19T18:05:18.386Z,101418.78
2023-04-19T18:07:46.095Z,101415.81
2023-04-19T18:10:13.830Z,101418.41
2023-04-19T18:12:43.195Z,101418.03
2023-04-19T18:15:11.652Z,101427.56
2023-04-19T18:17:39.696Z,101424.56
2023-04-19T18:20:08.497Z,101428.63
2023-04-19T18:22:36.797Z,101423.59
2023-04-19T18:25:04.681Z,101431.34
2023-04-19T18:27:32.670Z,101424.56
2023-04-19T18:30:04.113Z,101433.72
2023-04-19T18:32:32.555Z,101427.66
2023-04-19T18:35:00.243Z,101430.63
2023-04-19T18:37:28.308Z,101425.41
2023-04-19T18:39:55.961Z,101424.81
2023-04-19T18:42:24.313Z,101432.88
2023-04-19T18:44:54.353Z,101433.50
2023-04-19T18:47:26.262Z,101429.31
2023-04-19T18:50:04.648Z,101432.53
2023-04-19T18:52:35.399Z,101446.28
2023-04-19T18:55:03.354Z,101441.03
2023-04-19T18:57:34.719Z,101441.03
2023-04-19T19:00:06.252Z,101443.56
2023-04-19T19:02:36.971Z,101442.47
2023-04-19T19:05:08.181Z,101445.81
2023-04-19T19:07:37.785Z,101439.06
2023-04-19T19:10:18.530Z,101438.47
2023-04-19T19:12:49.876Z,101446.66
2023-04-19T19:15:18.341Z,101449.13
2023-04-19T19:17:49.839Z,101448.53
2023-04-19T19:20:18.036Z,101446.66
2023-04-19T19:22:45.777Z,101448.91
2023-04-19T19:25:14.295Z,101458.97
2023-04-19T19:27:57.866Z,101457.78
2023-04-19T19:30:33.429Z,101443.56
2023-04-19T19:33:04.672Z,101444.41
2023-04-19T19:35:33.149Z,101439.16
2023-04-19T19:38:00.788Z,101448.19
2023-04-19T19:40:31.048Z,101448.19
2023-04-19T19:43:00.035Z,101457.31
2023-04-19T19:48:03.439Z,101457.19
2023-04-19T19:53:02.156Z,101455.66
2023-04-19T19:55:30.875Z,101465.47
2023-04-19T20:01:03.791Z,101465.38
2023-04-19T20:03:37.400Z,101469.88
2023-04-19T20:08:42.325Z,101469.28
2023-04-19T20:11:11.839Z,101480.44
2023-04-19T20:13:40.907Z,101481.84
2023-04-19T20:16:10.167Z,101476.75
2023-04-19T20:18:39.073Z,101474.03
2023-04-19T20:21:06.966Z,101469.28
2023-04-19T20:23:34.528Z,101469.88
2023-04-19T20:26:02.819Z,101461.69
2023-04-19T20:28:30.416Z,101474.25
2023-04-19T20:30:59.561Z,101470.81
2023-04-19T20:33:28.531Z,101464.56
2023-04-19T20:35:56.730Z,101458.34
2023-04-19T20:38:24.525Z,101457.06
2023-04-19T20:40:53.087Z,101463.81
2023-04-19T20:43:21.106Z,101463.81
2023-04-19T20:45:48.712Z,101467.97
2023-04-19T20:48:18.137Z,101472.25
2023-04-19T20:50:46.138Z,101472.84
2023-04-19T20:53:13.881Z,101467.59
2023-04-19T20:55:42.338Z,101463.47
2023-04-19T20:58:10.108Z,101461.69
2023-04-19T21:00:38.115Z,101469.38
2023-04-19T21:03:06.273Z,101464.56
2023-04-19T21:05:36.014Z,101464.91
2023-04-19T21:08:04.409Z,101457.28
2023-04-19T21:10:32.013Z,101467.38
2023-04-19T21:13:00.348Z,101461.94
2023-04-19T21:15:28.241Z,101464.50
2023-04-19T21:17:55.882Z,101472.25
2023-04-19T21:20:23.639Z,101473.91
2023-04-19T21:22:52.635Z,101476.63
2023-04-19T21:25:20.777Z,101477.69
2023-04-19T21:27:54.619Z,101483.97
2023-04-19T21:30:23.653Z,101481.72
2023-04-19T21:32:51.353Z,101481.50
2023-04-19T21:35:19.407Z,101485.28
2023-04-19T21:37:47.417Z,101483.28
2023-04-19T21:40:16.477Z,101492.66
2023-04-19T21:42:44.152Z,101485.16
2023-04-19T21:45:12.818Z,101481.25
2023-04-19T21:47:40.474Z,101480.91
2023-04-19T21:50:09.962Z,101488.84
2023-04-19T21:52:37.600Z,101485.91
2023-04-19T21:55:06.510Z,101488.25
2023-04-19T21:57:37.519Z,101494.66
2023-04-19T22:00:06.653Z,101493.13
2023-04-19T22:02:34.389Z,101483.88
2023-04-19T22:05:02.736Z,101493.25
2023-04-19T22:07:31.882Z,101496.31
2023-04-19T22:10:01.136Z,101499.03
2023-04-19T22:12:29.179Z,101488.34
2023-04-19T22:14:58.254Z,101493.59
2023-04-19T22:17:26.652Z,101491.94
2023-04-19T22:19:54.849Z,101488.94
2023-04-19T22:22:22.555Z,101480.28
2023-04-19T22:24:57.379Z,101480.44
2023-04-19T22:27:26.787Z,101477.44
2023-04-19T22:29:54.496Z,101469.63
2023-04-19T22:32:23.989Z,101459.69
2023-04-19T22:34:51.803Z,101473.53
2023-04-19T22:37:19.549Z,101477.94
2023-04-19T22:39:47.438Z,101472.94
2023-04-19T22:42:15.135Z,101475.66
2023-04-19T22:44:43.275Z,101478.16
2023-04-19T22:47:11.791Z,101476.97
2023-04-19T22:49:43.135Z,101464.06
2023-04-19T22:52:11.323Z,101454.91
2023-04-19T22:54:39.402Z,101462.03
2023-04-19T22:57:07.006Z,101468.09
2023-04-19T22:59:34.645Z,101472.00
2023-04-19T23:02:02.360Z,101470.81
2023-04-19T23:04:34.779Z,101472.47
2023-04-19T23:07:04.208Z,101469.63
2023-04-19T23:09:32.472Z,101471.50
2023-04-19T23:12:00.484Z,101473.41
2023-04-19T23:14:28.526Z,101469.63
2023-04-19T23:16:57.075Z,101457.78
2023-04-19T23:19:25.620Z,101458.34
2023-04-19T23:21:53.274Z,101462.16
2023-04-19T23:24:22.347Z,101466.78
2023-04-19T23:26:50.020Z,101469.97
2023-04-19T23:29:18.068Z,101453.00
2023-04-19T23:31:46.018Z,101463.09
2023-04-19T23:34:14.272Z,101456.59
2023-04-19T23:36:41.929Z,101463.69
2023-04-19T23:39:10.136Z,101457.88
2023-04-19T23:41:39.197Z,101457.88
2023-04-19T23:44:07.230Z,101444.25
2023-04-19T23:46:34.843Z,101448.88
2023-04-19T23:49:03.188Z,101439.50
2023-04-19T23:51:31.271Z,101442.84
2023-04-19T23:53:59.301Z,101437.00
2023-04-19T23:56:26.899Z,101433.22
2023-04-19T23:58:55.886Z,101445.19
